• Join FlightAware (Why Join?)
  • Login
  • US Flag 
11:09AM EDT


 

Airport Tracker/Info


-or-


 

Live Flight TrackerFlight Track Log ✈ FDX1117 ✈ 18-Apr-2013 ✈ KOAK - KAFW

Flight Track Log - Related Links

Times and Time Zones

All times are in EDT time to prevent confusion due to time zone crossing. See the FDX1117 flight status page for this flight to view local times or setup timezone preferences in your user account.

Time Position Orientation Groundspeed Altitude Reporting Facility
EDT Latitude Longitude Course Direction KTS MPH feet Rate Location/Type
11:28PM 37.7210 -122.2430 310° West 138 159 900  Level FlightAware
11:29PM 37.7350 -122.2640 310° West 173 199 1,800 1,800 Climbing FlightAware
11:29PM 37.7540 -122.2770 332° Northwest 207 238 2,600 1,920 Climbing FlightAware
11:30PM 37.7810 -122.2580 29° Northeast 245 282 3,600 2,700 Climbing FlightAware
11:30PM 37.7910 -122.2220 71° East 252 290 5,100 3,600 Climbing FlightAware
11:31PM 37.8000 -122.1790 75° East 257 296 6,900 3,360 Climbing FlightAware
11:31PM 37.8100 -122.1340 74° East 270 311 8,500 3,000 Climbing FlightAware
11:32PM 37.8180 -122.0970 75° East 277 319 9,700 2,040 Climbing FlightAware
11:32PM 37.8370 -122.0230 72° East 330 380 10,900 1,500 Climbing FlightAware
11:33PM 37.8580 -121.9390 72° East 379 436 11,900 2,100 Climbing FlightAware
11:34PM 37.8790 -121.8530 73° East 393 452 13,700 2,700 Climbing FlightAware
11:34PM 37.9030 -121.7520 73° East 401 461 15,800 2,640 Climbing FlightAware
11:35PM 37.9230 -121.6630 74° East 407 468 17,500 2,400 Climbing FlightAware
11:36PM 37.9440 -121.5680 74° East 423 487 19,000 2,100 Climbing FlightAware
11:36PM 37.9550 -121.4540 83° East 441 507 20,500 2,040 Climbing FlightAware
11:37PM 37.9630 -121.3500 84° East 448 516 21,900 1,920 Climbing FlightAware
11:38PM 37.9730 -121.2340 84° East 457 526 23,300 1,740 Climbing FlightAware
11:39PM 37.9820 -121.1270 84° East 468 539 24,400 1,500 Climbing FlightAware
11:39PM 37.9930 -121.0000 84° East 480 552 25,500 1,440 Climbing FlightAware
11:40PM 38.0020 -120.8840 84° East 487 560 26,500 1,620 Climbing FlightAware
11:41PM 38.0110 -120.7730 84° East 488 562 27,700 1,860 Climbing FlightAware
11:41PM 38.0200 -120.6480 85° East 482 555 29,200 1,860 Climbing FlightAware
11:42PM 38.0290 -120.5390 84° East 478 550 30,400 1,620 Climbing FlightAware
11:43PM 38.0370 -120.4360 84° East 477 549 31,400 1,440 Climbing FlightAware
11:43PM 38.0470 -120.2970 85° East 477 549 32,500 1,080 Climbing FlightAware
11:44PM 38.0550 -120.1860 85° East 481 554 33,000 300 Climbing FlightAware
11:45PM 38.0640 -120.0620 85° East 480 552 33,000  Level FlightAware
11:46PM 38.0730 -119.9500 84° East 478 550 33,000  Level FlightAware
11:46PM 38.0810 -119.8250 85° East 477 549 33,000  Level FlightAware
11:47PM 38.0890 -119.7100 85° East 476 548 33,000  Level FlightAware
11:48PM 38.0970 -119.6020 85° East 475 547 33,000  Level FlightAware
11:48PM 38.1040 -119.4960 85° East 475 547 33,000  Level FlightAware
11:49PM 38.1130 -119.3660 85° East 474 545 33,000  Level FlightAware
11:50PM 38.1200 -119.2530 85° East 475 547 33,000  Level FlightAware
11:51PM 38.1310 -119.0910 85° East 474 545 33,000  Level FlightAware
11:52PM 38.1400 -118.9460 85° East 474 545 33,000  Level FlightAware
11:52PM 38.1470 -118.8510 85° East 474 545 33,000  Level FlightAware
11:53PM 38.1530 -118.7570 85° East 474 545 33,000  Level FlightAware
11:54PM 38.1600 -118.6620 85° East 474 545 33,000  Level FlightAware
11:54PM 38.1660 -118.5680 85° East 474 545 33,000  Level FlightAware
11:55PM 38.1740 -118.4500 85° East 474 545 33,000  Level FlightAware
11:56PM 38.1810 -118.3550 85° East 474 545 33,000  Level FlightAware
11:56PM 38.1870 -118.2610 85° East 474 545 33,000  Level FlightAware
11:57PM 38.1940 -118.1660 85° East 474 545 33,000  Level FlightAware
11:58PM 38.2000 -118.0720 85° East 474 545 33,000  Level FlightAware
11:59PM 38.2090 -117.9540 84° East 474 545 33,000  Level FlightAware
11:59PM 38.2150 -117.8590 85° East 474 545 33,000  Level FlightAware
12:00AM 38.2220 -117.7650 85° East 474 545 33,000  Level FlightAware
12:01AM 38.2280 -117.6700 85° East 474 545 33,000  Level FlightAware
12:01AM 38.2258 -117.4044 85° East 464 534 33,000  Level Salt Lake Center
12:02AM 38.2344 -117.2375 86° East 462 532 33,000  Level Salt Lake Center
12:03AM 38.2419 -117.0700 87° East 460 529 33,000  Level Salt Lake Center
12:04AM 38.2489 -116.9086 87° East 454 522 33,000  Level Salt Lake Center
12:05AM 38.2569 -116.7489 86° East 452 520 33,000  Level Oakland Center
12:06AM 38.2633 -116.5892 87° East 453 521 33,000  Level Oakland Center
12:07AM 38.2697 -116.4281 87° East 454 522 33,000  Level Oakland Center
12:08AM 38.2761 -116.2675 87° East 455 524 33,000  Level Salt Lake Center
12:09AM 38.2828 -116.1069 87° East 454 522 33,000  Level Salt Lake Center
12:10AM 38.2881 -115.9475 88° East 452 520 33,000  Level Salt Lake Center
12:11AM 38.2947 -115.7881 87° East 451 519 33,000  Level Salt Lake Center
12:12AM 38.3006 -115.6289 87° East 451 519 33,000  Level Salt Lake Center
12:13AM 38.3017 -115.4719 89° East 445 512 33,000  Level Salt Lake Center
12:14AM 38.3078 -115.3044 87° East 447 514 33,000  Level Salt Lake Center
12:15AM 38.3125 -115.1458 88° East 450 518 33,000  Level Salt Lake Center
12:16AM 38.3211 -114.9847 86° East 456 525 33,000  Level Salt Lake Center
12:17AM 38.3236 -114.8253 89° East 452 520 33,000  Level Salt Lake Center
12:18AM 38.3289 -114.6317 88° East 457 526 33,000  Level Salt Lake Center
12:19AM 38.2975 -114.4697 104° East 467 537 33,000  Level Salt Lake Center
12:20AM 38.2647 -114.3067 104° East 475 547 33,000  Level Salt Lake Center
12:21AM 38.2347 -114.1447 103° East 472 543 33,100 660 Climbing Salt Lake Center
12:22AM 38.2036 -113.9828 104° East 473 544 34,400 900 Climbing Salt Lake Center
12:23AM 38.1714 -113.8217 104° East 471 542 35,000 240 Climbing Salt Lake Center
12:25AM 38.1386 -113.6575 104° East 478 550 35,000  Level Salt Lake Center
12:26AM 38.1042 -113.4950 105° East 477 549 35,000  Level Salt Lake Center
12:27AM 38.0717 -113.3336 104° East 473 544 35,000  Level Salt Lake Center
12:28AM 38.0386 -113.1717 104° East 473 544 35,000  Level Salt Lake Center
12:29AM 38.0056 -113.0094 104° East 473 544 35,000  Level Salt Lake Center
12:30AM 37.9664 -112.8147 104° East 472 543 35,000  Level Salt Lake Center
12:31AM 37.9333 -112.6522 104° East 472 543 35,000  Level Salt Lake Center
12:32AM 37.8994 -112.4908 105° East 472 543 35,000  Level Salt Lake Center
12:33AM 37.8653 -112.3281 105° East 474 545 35,000  Level Salt Lake Center
12:34AM 37.8306 -112.1644 105° East 478 550 35,000  Level Salt Lake Center
12:35AM 37.7950 -112.0036 106° East 476 548 35,000  Level Salt Lake Center
12:36AM 37.7617 -111.8431 105° East 475 547 35,000  Level Salt Lake Center
12:37AM 37.7261 -111.6836 106° East 473 544 35,000  Level Salt Lake Center
12:38AM 37.6900 -111.5222 106° East 476 548 35,000  Level Salt Lake Center
12:39AM 37.6547 -111.3647 106° East 471 542 35,000  Level Salt Lake Center
12:40AM 37.6203 -111.2064 105° East 468 539 35,000  Level Salt Lake Center
12:41AM 37.5842 -111.0475 106° East 470 541 35,000  Level Salt Lake Center
12:42AM 37.5481 -110.8886 106° East 472 543 35,000  Level Salt Lake Center
12:43AM 37.5039 -110.6978 106° East 475 547 35,000  Level Denver Center
12:44AM 37.4692 -110.5383 105° East 472 543 35,000  Level Denver Center
12:45AM 37.4317 -110.3786 106° East 475 547 35,000  Level Denver Center
12:46AM 37.3939 -110.2192 107° East 478 550 35,000  Level Denver Center
12:47AM 37.3542 -110.0461 106° East 483 556 35,000  Level Denver Center
12:48AM 37.3108 -109.8647 107° East 486 559 35,000  Level Denver Center
12:49AM 37.2756 -109.7131 106° East 475 547 35,000  Level Denver Center
12:50AM 37.2378 -109.5583 107° East 482 555 35,000  Level Denver Center
12:51AM 37.1950 -109.3792 107° East 480 552 35,000  Level Denver Center
12:52AM 37.1572 -109.2258 107° East 480 552 35,000  Level Denver Center
12:53AM 37.1208 -109.0736 107° East 476 548 35,000  Level Denver Center
12:54AM 37.0778 -108.8978 107° East 470 541 35,000  Level Denver Center
12:55AM 37.0403 -108.7478 107° East 471 542 35,000  Level Denver Center
12:56AM 37.0028 -108.5953 107° East 475 547 35,000  Level Denver Center
12:57AM 36.9589 -108.4183 107° East 476 548 35,000  Level Denver Center
12:58AM 36.9197 -108.2653 108° East 479 551 35,000  Level Denver Center
12:59AM 36.8811 -108.1117 107° East 483 556 35,000  Level Denver Center
01:00AM 36.8350 -107.9317 108° East 486 559 35,000  Level Denver Center
01:01AM 36.7953 -107.7789 108° East 483 556 35,000  Level Denver Center
01:02AM 36.7558 -107.6236 108° East 486 559 35,000  Level Denver Center
01:08AM 36.5180 -106.7200 108° East 493 567 35,000  Level FlightAware
01:09AM 36.4890 -106.6110 108° East 492 566 35,000  Level FlightAware
01:09AM 36.4650 -106.5200 108° East 492 566 35,000  Level FlightAware
01:10AM 36.4410 -106.4280 108° East 492 566 35,000  Level FlightAware
01:11AM 36.4170 -106.3370 108° East 492 566 35,000  Level FlightAware
01:11AM 36.3870 -106.2220 108° East 492 566 35,000  Level FlightAware
01:12AM 36.3630 -106.1310 108° East 492 566 35,000  Level FlightAware
01:13AM 36.3390 -106.0400 108° East 492 566 35,000  Level FlightAware
01:13AM 36.3160 -105.9480 107° East 492 566 35,000  Level FlightAware
01:14AM 36.2920 -105.8570 108° East 492 566 35,000  Level FlightAware
01:15AM 36.2680 -105.7660 108° East 492 566 35,000  Level FlightAware
01:16AM 36.2380 -105.6510 108° East 492 566 35,000  Level FlightAware
01:16AM 36.2140 -105.5600 108° East 492 566 35,000  Level FlightAware
01:17AM 36.1900 -105.4690 108° East 492 566 35,000  Level FlightAware
01:18AM 36.1660 -105.3780 108° East 492 566 35,000  Level FlightAware
01:19AM 35.9447 -104.9833 108° East 512 589 35,000  Level Albuquerque Center
01:20AM 35.8886 -104.8217 113° Southeast 510 587 35,000  Level Albuquerque Center
01:21AM 35.8292 -104.6603 114° Southeast 511 588 35,000  Level Albuquerque Center
01:22AM 35.7714 -104.4961 113° Southeast 514 592 35,000  Level Albuquerque Center
01:23AM 35.7133 -104.3314 113° Southeast 516 594 35,000  Level Albuquerque Center
01:24AM 35.6544 -104.1681 114° Southeast 516 594 35,000  Level Albuquerque Center
01:25AM 35.5956 -104.0033 114° Southeast 516 594 35,000  Level Albuquerque Center
01:26AM 35.5364 -103.8397 114° Southeast 516 594 35,000  Level Albuquerque Center
01:27AM 35.4775 -103.6753 114° Southeast 518 596 35,000  Level Albuquerque Center
01:28AM 35.4172 -103.5100 114° Southeast 523 602 35,000  Level Albuquerque Center
01:29AM 35.3558 -103.3436 114° Southeast 527 606 35,000  Level Albuquerque Center
01:30AM 35.2950 -103.1789 114° Southeast 526 605 35,000  Level Albuquerque Center
01:31AM 35.2339 -103.0133 114° Southeast 528 608 35,000  Level Albuquerque Center
01:32AM 35.1761 -102.8597 115° Southeast 524 603 35,000  Level Albuquerque Center
01:33AM 35.1169 -102.7006 114° Southeast 519 597 35,000  Level Albuquerque Center
01:34AM 35.0564 -102.5417 115° Southeast 518 596 35,000  Level Albuquerque Center
01:35AM 34.9828 -102.3483 115° Southeast 526 605 35,000  Level Albuquerque Center
01:36AM 34.9228 -102.1869 114° Southeast 527 606 35,000  Level Albuquerque Center
01:37AM 34.8606 -102.0275 115° Southeast 527 606 35,000  Level Albuquerque Center
01:38AM 34.7992 -101.8678 115° Southeast 527 606 35,000  Level Albuquerque Center
01:39AM 34.7375 -101.7097 115° Southeast 524 603 35,000  Level Albuquerque Center
01:40AM 34.6756 -101.5497 115° Southeast 527 606 35,000  Level Albuquerque Center
01:41AM 34.6147 -101.3911 115° Southeast 525 604 35,000  Level Albuquerque Center
01:42AM 34.5525 -101.2319 115° Southeast 524 603 35,000  Level Albuquerque Center
01:43AM 34.4914 -101.0736 115° Southeast 523 602 35,000  Level Albuquerque Center
01:44AM 34.4281 -100.9169 116° Southeast 521 600 35,000  Level Albuquerque Center
01:45AM 34.3508 -100.7214 116° Southeast 523 602 35,000  Level Fort Worth Center
01:46AM 34.2881 -100.5606 115° Southeast 523 602 35,000  Level Fort Worth Center
01:47AM 34.2211 -100.3972 116° Southeast 528 608 35,000  Level Fort Worth Center
01:48AM 34.1561 -100.2344 116° Southeast 528 608 35,000  Level Fort Worth Center
01:49AM 34.0886 -100.0717 117° Southeast 533 613 35,000  Level Fort Worth Center
01:50AM 34.0231 -99.9144 117° Southeast 533 613 35,000  Level Fort Worth Center
01:51AM 33.9594 -99.7572 116° Southeast 533 613 35,000 -300 Level Fort Worth Center
01:52AM 33.8975 -99.6006 115° Southeast 528 608 34,500 -1,500 Descending Fort Worth Center
01:53AM 33.8333 -99.4489 117° Southeast 517 595 32,000 -2,280 Descending Fort Worth Center
01:54AM 33.7708 -99.3000 117° Southeast 506 582 30,000 -1,980 Descending Fort Worth Center
01:55AM 33.7125 -99.1564 116° Southeast 489 563 28,100 -2,040 Descending Fort Worth Center
02:01AM 33.3910 -98.4030 116° Southeast 414 476 16,600 -1,860 Descending FlightAware
02:01AM 33.3600 -98.3280 116° Southeast 414 476 16,400 -2,040 Descending FlightAware
02:02AM 33.3280 -98.2530 117° Southeast 393 452 14,100 -2,760 Descending FlightAware
02:03AM 33.2870 -98.1570 117° Southeast 385 443 12,500 -1,200 Descending FlightAware
02:04AM 33.2540 -98.0820 118° Southeast 383 441 12,200 -1,380 Descending FlightAware
02:04AM 33.2260 -98.0140 116° Southeast 374 430 10,700 -2,520 Descending FlightAware
02:05AM 33.2080 -97.9730 118° Southeast 349 402 9,900 -1,080 Descending FlightAware
02:05AM 33.1910 -97.9360 119° Southeast 349 402 9,900 -960 Level FlightAware
02:05AM 33.2040 -97.9670 297° West 335 386 9,200 -780 Descending FlightAware
02:06AM 33.1860 -97.9110 111° Southeast 335 386 9,200  Level FlightAware
02:06AM 33.1720 -97.8670 111° Southeast 335 386 9,200  Level FlightAware
02:07AM 33.1580 -97.8230 111° Southeast 335 386 9,200 -3,120 Level FlightAware
02:07AM 33.1190 -97.6970 110° East 296 341 6,100 -4,200 Descending FlightAware
02:08AM 33.1120 -97.6560 102° East 293 337 5,400 -1,620 Descending FlightAware
02:08AM 33.1090 -97.6260 97° East 290 334 4,900 -1,500 Descending FlightAware
02:09AM 33.1060 -97.5810 95° East 285 328 3,800 -1,440 Descending FlightAware
02:09AM 33.1010 -97.5020 94° East 276 318 3,000 -1,440 Descending FlightAware
02:10AM 33.0990 -97.4790 96° East 274 315 2,600 -900 Descending FlightAware
02:10AM 33.0970 -97.4470 94° East 258 297 2,400 -240 Descending FlightAware
02:11AM 33.0950 -97.4130 94° East 258 297 2,400 -240 Level FlightAware
02:11AM 33.0920 -97.3810 96° East 204 235 2,200 -300 Descending FlightAware
02:11AM 33.0900 -97.3590 96° East 182 209 2,200 -180 Level FlightAware
02:12AM 33.0790 -97.3400 125° Southeast 177 204 2,100 -120 Descending FlightAware
02:12AM 33.0650 -97.3230 134° Southeast 177 204 2,100 -840 Level FlightAware
02:12AM 33.0790 -97.3400 315° West 154 177 1,500 -1,620 Descending FlightAware
02:13AM 33.0380 -97.3280 166° South 154 177 1,300 -480 Descending FlightAware
02:13AM 33.0100 -97.3220 170° South 154 177 1,100 -300 Descending FlightAware
02:28AM 32.9833 -97.3167 140° Southeast  Level FlightAware Approximate
02:29AM 32.9876 -97.3188 140° Southeast  Level Estimated
02:30AM 32.9833 -97.3167 140° Southeast  Level FlightAware Approximate
02:31AM 32.9876 -97.3188 140° Southeast  Level Estimated